Time;durP1;ratioP1;P1;durP2;ratioP2;P2;SDS_P1;SDS_P2;PMS_P1;PMS_P2;Temp;Humidity;BMP_temperature;BMP_pressure;BME280_temperature;BME280_humidity;BME280_pressure;Samples;Min_cycle;Max_cycle;Signal;HPM_P1;HPM_P2
2023/07/19 00:00:40;;;;;;;1.10;1.00;;;;;;;20.69;49.59;101159.88;4961519;28;97221;-44
2023/07/19 00:03:05;;;;;;;1.47;0.90;;;;;;;20.71;49.68;101157.28;4960008;28;96998;-44
2023/07/19 00:05:31;;;;;;;1.23;1.00;;;;;;;20.71;49.59;101155.25;4960692;28;97214;-44
2023/07/19 00:07:57;;;;;;;2.67;1.10;;;;;;;20.69;49.54;101165.47;4960014;28;97193;-45
2023/07/19 00:10:22;;;;;;;2.00;1.03;;;;;;;20.66;49.94;101153.34;4962296;28;97121;-45
2023/07/19 00:12:47;;;;;;;0.90;0.80;;;;;;;20.62;49.84;101155.03;4960924;28;97016;-44
2023/07/19 00:15:12;;;;;;;1.67;0.80;;;;;;;20.57;50.04;101148.28;4961556;28;98854;-44
2023/07/19 00:17:38;;;;;;;1.00;0.80;;;;;;;20.58;50.33;101143.41;4960941;28;97669;-44
2023/07/19 00:20:05;;;;;;;1.10;0.80;;;;;;;20.59;50.19;101145.69;4962502;28;97414;-44
2023/07/19 00:22:33;;;;;;;1.17;0.90;;;;;;;20.63;50.29;101140.47;4960676;28;96733;-45
2023/07/19 00:24:59;;;;;;;1.20;0.80;;;;;;;20.64;50.30;101136.38;4960425;28;97111;-44
2023/07/19 00:27:24;;;;;;;1.27;1.17;;;;;;;20.67;50.14;101143.66;4961076;28;97461;-44
2023/07/19 00:29:50;;;;;;;0.90;0.73;;;;;;;20.67;50.07;101134.53;4959327;28;97159;-44
2023/07/19 00:32:16;;;;;;;1.67;1.00;;;;;;;20.64;50.14;101130.06;4959017;28;97336;-44
2023/07/19 00:34:41;;;;;;;1.00;0.67;;;;;;;20.59;50.34;101131.69;4960851;28;97226;-44
2023/07/19 00:37:07;;;;;;;1.57;0.80;;;;;;;20.57;50.33;101134.31;4959872;28;97141;-44
2023/07/19 00:39:32;;;;;;;0.70;0.67;;;;;;;20.56;50.36;101130.00;4960225;28;96820;-43
2023/07/19 00:41:57;;;;;;;3.27;0.77;;;;;;;20.56;50.22;101134.84;4959997;28;97625;-44
2023/07/19 00:44:23;;;;;;;1.20;1.10;;;;;;;20.52;50.32;101132.41;4960855;28;97219;-44
2023/07/19 00:46:48;;;;;;;1.30;1.00;;;;;;;20.52;50.25;101124.00;4960899;28;96643;-44
2023/07/19 00:49:14;;;;;;;1.43;0.90;;;;;;;20.52;50.41;101128.84;4960681;28;97200;-44
2023/07/19 00:51:40;;;;;;;1.10;1.00;;;;;;;20.46;50.39;101120.63;4960123;28;97296;-45
2023/07/19 00:54:08;;;;;;;2.30;1.00;;;;;;;20.44;50.49;101114.84;4960064;28;96964;-45
2023/07/19 00:56:33;;;;;;;3.47;1.10;;;;;;;20.44;50.71;101123.22;4959731;28;97246;-45
2023/07/19 00:59:01;;;;;;;3.53;1.10;;;;;;;20.43;50.68;101127.31;4960097;28;97149;-44
2023/07/19 01:01:27;;;;;;;1.00;0.90;;;;;;;20.42;50.65;101117.41;4960478;28;98312;-45
2023/07/19 01:03:52;;;;;;;1.03;0.90;;;;;;;20.37;50.64;101112.00;4959245;28;97142;-44
2023/07/19 01:06:19;;;;;;;1.20;1.00;;;;;;;20.32;50.67;101110.09;4960581;28;99018;-45
2023/07/19 01:08:44;;;;;;;1.57;0.90;;;;;;;20.28;50.70;101102.06;4961764;28;97062;-44
2023/07/19 01:11:10;;;;;;;1.87;1.30;;;;;;;20.25;50.92;101114.31;4958965;28;97206;-45
2023/07/19 01:13:35;;;;;;;1.20;1.10;;;;;;;20.25;51.13;101117.13;4960639;28;97466;-44
2023/07/19 01:16:01;;;;;;;1.17;0.87;;;;;;;20.24;50.85;101115.66;4960930;28;97414;-44
2023/07/19 01:18:26;;;;;;;2.07;1.10;;;;;;;20.21;50.88;101111.13;4960780;28;96790;-45
2023/07/19 01:20:52;;;;;;;0.93;0.93;;;;;;;20.20;51.16;101115.22;4960410;28;97314;-44
2023/07/19 01:23:17;;;;;;;1.23;0.83;;;;;;;20.16;51.32;101106.41;4959762;28;97208;-44
2023/07/19 01:25:42;;;;;;;0.90;0.80;;;;;;;20.12;51.10;101103.22;4960703;28;97567;-45
2023/07/19 01:28:08;;;;;;;1.10;1.00;;;;;;;20.10;51.36;101098.19;4958183;28;97270;-44
2023/07/19 01:30:33;;;;;;;1.13;0.97;;;;;;;20.10;51.19;101089.81;4960123;28;98236;-45
2023/07/19 01:32:59;;;;;;;2.20;0.97;;;;;;;20.07;51.03;101087.38;4958232;28;96757;-44
2023/07/19 01:35:25;;;;;;;1.17;1.00;;;;;;;20.03;51.42;101087.69;4963883;28;97013;-44
2023/07/19 01:37:50;;;;;;;1.30;1.07;;;;;;;19.98;51.28;101088.63;4964455;28;97045;-45
2023/07/19 01:40:16;;;;;;;1.20;1.00;;;;;;;19.96;51.29;101096.78;4962727;28;98530;-44
2023/07/19 01:42:41;;;;;;;1.10;1.00;;;;;;;19.93;51.42;101091.53;4963024;28;96640;-44
2023/07/19 01:45:07;;;;;;;1.03;0.90;;;;;;;19.89;51.58;101086.31;4962888;28;97137;-44
2023/07/19 01:47:32;;;;;;;2.13;1.10;;;;;;;19.84;51.50;101081.59;4963038;28;96758;-45
2023/07/19 01:49:58;;;;;;;1.20;0.93;;;;;;;19.75;51.65;101087.69;4963353;28;98168;-45
2023/07/19 01:52:23;;;;;;;1.17;0.90;;;;;;;19.76;51.54;101088.44;4962819;28;97158;-44
2023/07/19 01:54:48;;;;;;;1.17;1.07;;;;;;;19.75;51.65;101092.50;4962720;28;98246;-44
2023/07/19 01:57:14;;;;;;;1.90;1.07;;;;;;;19.72;51.65;101082.44;4963031;28;99337;-44
2023/07/19 01:59:39;;;;;;;1.17;1.17;;;;;;;19.70;51.91;101091.34;4964221;28;97314;-45
2023/07/19 02:02:05;;;;;;;2.00;1.07;;;;;;;19.73;52.03;101109.06;4962391;28;108995;-44
2023/07/19 02:04:30;;;;;;;1.47;0.90;;;;;;;19.71;52.01;101083.72;4963001;28;97192;-45
2023/07/19 02:06:56;;;;;;;1.47;0.83;;;;;;;19.73;51.95;101078.34;4961397;28;97144;-44
2023/07/19 02:09:22;;;;;;;1.50;1.13;;;;;;;19.72;51.71;101074.81;4961632;28;97380;-44
2023/07/19 02:11:47;;;;;;;1.10;1.00;;;;;;;19.67;51.92;101066.56;4963349;28;96954;-45
2023/07/19 02:14:12;;;;;;;1.40;1.30;;;;;;;19.63;51.88;101066.16;4963383;28;97333;-45
2023/07/19 02:16:38;;;;;;;1.93;1.10;;;;;;;19.60;52.01;101062.41;4964332;28;97443;-44
2023/07/19 02:19:06;;;;;;;1.17;1.00;;;;;;;19.59;52.04;101057.41;4961953;28;97763;-45
2023/07/19 02:21:32;;;;;;;2.10;1.50;;;;;;;19.56;51.94;101061.25;4961813;28;97750;-44
2023/07/19 02:23:58;;;;;;;1.47;0.97;;;;;;;19.53;52.10;101062.38;4963723;28;97566;-44
2023/07/19 02:26:24;;;;;;;2.20;1.20;;;;;;;19.50;52.24;101058.63;4963605;28;97366;-45
2023/07/19 02:28:49;;;;;;;1.20;1.10;;;;;;;19.49;52.14;101054.31;4963156;28;97568;-45
2023/07/19 02:31:14;;;;;;;1.23;0.80;;;;;;;19.50;52.28;101050.25;4960915;28;102347;-44
2023/07/19 02:33:40;;;;;;;1.30;1.20;;;;;;;19.51;52.31;101053.78;4962702;28;97069;-44
2023/07/19 02:36:05;;;;;;;1.23;1.00;;;;;;;19.52;52.36;101044.88;4963406;28;98407;-44
2023/07/19 02:38:31;;;;;;;1.77;1.20;;;;;;;19.46;52.34;101043.50;4961948;28;97276;-44
2023/07/19 02:40:59;;;;;;;1.67;1.20;;;;;;;19.43;52.37;101043.31;4961251;28;97119;-44
2023/07/19 02:43:24;;;;;;;1.77;1.00;;;;;;;19.36;52.51;101046.78;4963780;28;97087;-44
2023/07/19 02:45:52;;;;;;;2.07;0.87;;;;;;;19.35;52.76;101044.53;4963094;28;97328;-44
2023/07/19 02:48:18;;;;;;;3.37;1.10;;;;;;;19.33;52.84;101044.31;4962926;28;97272;-45
2023/07/19 02:50:47;;;;;;;1.67;1.00;;;;;;;19.32;52.92;101051.91;4962956;28;97250;-44
2023/07/19 02:53:13;;;;;;;4.57;0.97;;;;;;;19.31;52.60;101047.63;4962741;28;97394;-45
2023/07/19 02:55:39;;;;;;;1.03;0.93;;;;;;;19.24;52.71;101045.50;4963254;28;97625;-44
2023/07/19 02:58:05;;;;;;;1.30;1.17;;;;;;;19.20;52.72;101039.50;4962192;28;97194;-44
2023/07/19 03:00:30;;;;;;;1.03;1.03;;;;;;;19.18;52.84;101042.09;4961871;28;97160;-43
2023/07/19 03:02:56;;;;;;;1.07;1.07;;;;;;;19.18;52.76;101035.75;4956830;28;97254;-44
2023/07/19 03:05:22;;;;;;;1.27;1.07;;;;;;;19.16;52.98;101038.34;4960697;28;97149;-45
2023/07/19 03:07:48;;;;;;;1.60;1.10;;;;;;;19.14;52.97;101033.31;4961190;28;97367;-44
2023/07/19 03:10:13;;;;;;;1.33;1.20;;;;;;;19.17;52.88;101028.69;4961316;28;97167;-45
2023/07/19 03:12:38;;;;;;;1.83;1.23;;;;;;;19.17;52.94;101023.88;4962600;28;97280;-44
2023/07/19 03:15:04;;;;;;;1.10;1.10;;;;;;;19.16;52.90;101025.16;4962412;28;97069;-45
2023/07/19 03:17:30;;;;;;;1.03;0.93;;;;;;;19.16;53.08;101025.16;4961374;28;97909;-44
2023/07/19 03:19:55;;;;;;;2.07;1.20;;;;;;;19.14;53.03;101010.25;4961955;28;97113;-45
2023/07/19 03:22:20;;;;;;;2.07;1.23;;;;;;;19.15;52.92;101004.16;4961807;28;96984;-44
2023/07/19 03:24:46;;;;;;;1.23;0.90;;;;;;;19.12;52.77;100999.66;4962974;28;96884;-45
2023/07/19 03:27:11;;;;;;;1.20;0.80;;;;;;;19.12;53.08;100994.06;4960438;28;104680;-44
2023/07/19 03:29:36;;;;;;;1.10;1.00;;;;;;;19.10;53.21;100995.91;4962148;28;108567;-45
2023/07/19 03:32:02;;;;;;;2.97;1.57;;;;;;;19.09;53.02;100988.84;4963326;28;96895;-44
2023/07/19 03:34:27;;;;;;;1.23;1.13;;;;;;;19.06;53.28;100996.25;4962706;28;96935;-44
2023/07/19 03:36:53;;;;;;;1.47;1.00;;;;;;;19.05;53.41;100999.56;4961332;28;97238;-43
2023/07/19 03:39:18;;;;;;;1.10;1.00;;;;;;;19.07;53.42;100992.16;4961380;28;97633;-44
2023/07/19 03:41:43;;;;;;;0.83;0.83;;;;;;;19.07;53.50;100991.41;4961745;28;97543;-45
2023/07/19 03:44:09;;;;;;;1.63;1.20;;;;;;;19.07;53.61;101003.31;4961318;28;97147;-43
2023/07/19 03:46:35;;;;;;;1.60;1.50;;;;;;;19.12;53.62;101002.44;4962433;28;97296;-45
2023/07/19 03:49:00;;;;;;;1.30;1.10;;;;;;;19.16;53.64;101008.41;4950136;28;97622;-44
2023/07/19 03:51:25;;;;;;;3.03;1.10;;;;;;;19.16;53.52;101002.09;4957326;28;96962;-43
2023/07/19 03:53:51;;;;;;;1.13;1.07;;;;;;;19.17;53.55;101009.94;4961753;28;97051;-45
2023/07/19 03:56:16;;;;;;;1.20;0.90;;;;;;;19.20;53.26;100999.69;4960064;28;111608;-44
2023/07/19 03:58:45;;;;;;;1.63;0.97;;;;;;;19.17;53.24;101001.56;4961306;28;110775;-45
2023/07/19 04:01:10;;;;;;;1.13;0.93;;;;;;;19.14;53.63;100982.34;4954992;28;97700;-45
2023/07/19 04:03:35;;;;;;;1.57;1.10;;;;;;;19.14;53.54;100985.91;4960532;28;97168;-45
2023/07/19 04:06:01;;;;;;;1.17;1.07;;;;;;;19.10;53.69;100988.28;4961839;28;98567;-45
2023/07/19 04:08:27;;;;;;;2.03;0.77;;;;;;;19.10;53.78;100995.91;4954445;28;96882;-44
2023/07/19 04:10:52;;;;;;;2.33;1.20;;;;;;;19.10;54.00;100996.66;4958345;28;97284;-45
2023/07/19 04:13:18;;;;;;;2.60;1.03;;;;;;;19.09;54.01;100995.13;4959132;28;96901;-44
2023/07/19 04:15:43;;;;;;;2.00;1.50;;;;;;;19.26;55.14;100987.09;4959852;28;97517;-45
2023/07/19 04:18:09;;;;;;;1.10;1.00;;;;;;;19.15;54.72;100990.19;4956049;28;96759;-44
2023/07/19 04:20:36;;;;;;;3.00;1.30;;;;;;;19.13;54.74;100984.38;4959815;28;96777;-45
2023/07/19 04:23:03;;;;;;;1.30;1.10;;;;;;;19.15;54.80;100987.41;4960778;28;97121;-45
2023/07/19 04:25:31;;;;;;;1.87;1.50;;;;;;;19.15;54.79;100987.41;4961981;28;98044;-45
2023/07/19 04:27:56;;;;;;;1.03;0.90;;;;;;;19.14;54.66;100985.16;4958875;28;96856;-51
2023/07/19 04:30:21;;;;;;;1.57;1.10;;;;;;;19.14;54.82;100985.91;4959859;28;96936;-45
2023/07/19 04:32:48;;;;;;;2.30;1.00;;;;;;;19.15;54.68;100984.63;4960524;28;97099;-46
2023/07/19 04:35:14;;;;;;;1.43;1.20;;;;;;;19.16;54.68;100983.31;4958953;28;97434;-44
2023/07/19 04:37:41;;;;;;;1.77;1.30;;;;;;;19.16;54.74;100972.16;4961056;28;97083;-44
2023/07/19 04:40:11;;;;;;;1.67;1.33;;;;;;;19.20;54.59;100969.00;4960483;28;96709;-45
2023/07/19 04:42:36;;;;;;;1.03;0.93;;;;;;;19.18;54.70;100977.19;4961103;28;96829;-44
2023/07/19 04:45:02;;;;;;;1.10;1.00;;;;;;;19.20;54.67;100980.94;4961337;28;96995;-46
2023/07/19 04:47:28;;;;;;;1.30;1.20;;;;;;;19.22;54.85;100981.13;4961382;28;97219;-44
2023/07/19 04:49:53;;;;;;;1.53;1.27;;;;;;;19.24;55.04;100988.97;4959667;28;97311;-45
2023/07/19 04:52:18;;;;;;;1.10;1.00;;;;;;;19.21;54.93;100982.44;4962160;28;100985;-45
2023/07/19 04:54:47;;;;;;;2.10;1.40;;;;;;;19.17;54.93;100987.63;4964637;28;97280;-44
2023/07/19 04:57:13;;;;;;;1.10;1.03;;;;;;;19.15;55.03;100990.19;4961699;28;97317;-45
2023/07/19 04:59:38;;;;;;;1.17;1.07;;;;;;;19.15;55.11;100984.63;4975230;28;96995;-44
2023/07/19 05:02:04;;;;;;;1.23;1.13;;;;;;;19.12;55.17;100993.31;4961674;28;97221;-44
2023/07/19 05:04:29;;;;;;;1.33;1.23;;;;;;;19.07;55.27;100996.97;4960858;28;97402;-45
2023/07/19 05:06:54;;;;;;;1.47;1.00;;;;;;;19.07;55.53;100994.94;4961880;28;97048;-45
2023/07/19 05:09:20;;;;;;;1.27;1.10;;;;;;;19.11;55.59;101003.72;4963216;28;96697;-44
2023/07/19 05:11:46;;;;;;;4.20;1.30;;;;;;;19.12;55.48;100990.53;4964720;28;97308;-45
2023/07/19 05:14:11;;;;;;;1.30;1.20;;;;;;;19.12;55.31;100999.66;4964617;28;97394;-45
2023/07/19 05:16:36;;;;;;;1.23;1.13;;;;;;;19.16;55.68;100988.88;4963208;28;104189;-45
2023/07/19 05:19:02;;;;;;;1.23;1.13;;;;;;;19.23;55.69;100993.03;4965591;28;97100;-45
2023/07/19 05:21:28;;;;;;;1.10;1.00;;;;;;;19.28;55.63;100995.72;4962019;28;97337;-45
2023/07/19 05:23:53;;;;;;;3.20;1.47;;;;;;;19.33;55.51;101005.25;4964350;28;97207;-44
2023/07/19 05:26:19;;;;;;;2.90;1.13;;;;;;;19.34;55.64;100996.34;4964025;28;97195;-44
2023/07/19 05:28:45;;;;;;;1.50;1.20;;;;;;;19.39;55.68;100997.50;4964802;28;96969;-45
2023/07/19 05:31:11;;;;;;;1.30;1.20;;;;;;;19.46;55.63;100999.63;4964805;28;97129;-46
2023/07/19 05:33:36;;;;;;;1.20;1.10;;;;;;;19.52;55.74;100991.84;4963563;28;98659;-45
2023/07/19 05:36:02;;;;;;;1.30;1.20;;;;;;;19.59;55.78;100993.94;4964411;28;97231;-44
2023/07/19 05:38:28;;;;;;;1.80;1.30;;;;;;;19.67;55.71;100991.94;4963709;28;96635;-45
2023/07/19 05:41:01;;;;;;;1.23;1.03;;;;;;;19.76;56.14;100991.47;4964242;28;97553;-44
2023/07/19 05:43:26;;;;;;;1.27;1.10;;;;;;;19.80;55.72;100989.06;4964887;28;97468;-44
2023/07/19 05:45:52;;;;;;;1.53;1.43;;;;;;;19.87;55.68;100985.56;4962888;28;97169;-45
2023/07/19 05:48:18;;;;;;;1.07;0.97;;;;;;;19.95;55.56;100988.41;4964171;28;97038;-45
2023/07/19 05:50:43;;;;;;;2.93;1.30;;;;;;;20.05;55.52;100990.13;4963790;28;97049;-45
2023/07/19 05:53:08;;;;;;;1.50;1.40;;;;;;;20.15;55.37;100990.38;4962834;28;101379;-45
2023/07/19 05:55:33;;;;;;;1.50;1.40;;;;;;;20.19;55.20;100985.94;4963397;28;108553;-45
2023/07/19 05:57:59;;;;;;;1.20;1.10;;;;;;;20.32;55.23;100979.50;4963129;28;97863;-45
2023/07/19 06:00:24;;;;;;;1.10;1.00;;;;;;;20.43;55.15;100986.81;4963413;28;97061;-44
2023/07/19 06:02:53;;;;;;;1.33;1.23;;;;;;;20.46;55.04;100989.25;4963757;28;96754;-46
2023/07/19 06:05:19;;;;;;;1.20;1.10;;;;;;;20.52;54.84;100984.25;4963943;28;96819;-44
2023/07/19 06:07:48;;;;;;;1.97;1.27;;;;;;;20.60;54.76;100990.59;4963201;28;96836;-45
2023/07/19 06:10:13;;;;;;;1.57;1.30;;;;;;;20.68;54.71;100990.63;4960559;28;96893;-44
2023/07/19 06:12:42;;;;;;;1.37;1.27;;;;;;;20.76;54.74;100985.78;4963433;28;97121;-45
2023/07/19 06:15:08;;;;;;;1.97;1.20;;;;;;;20.76;54.39;100983.75;4963689;28;97395;-45
2023/07/19 06:17:33;;;;;;;1.30;1.20;;;;;;;20.80;54.49;100989.72;4963596;28;96999;-44
2023/07/19 06:19:58;;;;;;;1.40;1.20;;;;;;;20.82;54.45;101001.09;4961749;28;96754;-45
2023/07/19 06:22:24;;;;;;;2.30;1.40;;;;;;;20.85;54.42;101000.00;4963011;28;98011;-45
2023/07/19 06:24:50;;;;;;;2.60;1.40;;;;;;;20.88;54.60;100998.88;4962812;28;106066;-44
2023/07/19 06:27:16;;;;;;;1.57;0.90;;;;;;;20.90;54.36;100995.53;4962142;28;96915;-45
2023/07/19 06:29:42;;;;;;;1.20;1.10;;;;;;;20.95;54.65;100994.59;4963879;28;97114;-44
2023/07/19 06:32:08;;;;;;;1.00;0.90;;;;;;;20.99;54.67;100985.84;4962933;28;97590;-44
2023/07/19 06:34:33;;;;;;;1.20;0.90;;;;;;;21.02;54.42;100991.06;4961105;28;97095;-45
2023/07/19 06:36:58;;;;;;;2.07;1.33;;;;;;;21.03;54.30;100997.41;4963159;28;97350;-46
2023/07/19 06:39:24;;;;;;;1.40;1.30;;;;;;;21.04;54.24;100990.53;4962244;28;97295;-44
2023/07/19 06:41:49;;;;;;;1.57;1.10;;;;;;;21.03;54.31;100992.59;4962937;28;107488;-45
2023/07/19 06:44:14;;;;;;;1.30;0.80;;;;;;;21.04;54.15;100988.50;4964272;28;97296;-45
2023/07/19 06:46:40;;;;;;;1.20;1.10;;;;;;;21.06;53.91;100994.28;4961903;28;96770;-45
2023/07/19 06:49:05;;;;;;;1.03;0.93;;;;;;;21.11;54.10;100989.81;4962572;28;97134;-45
2023/07/19 06:51:30;;;;;;;1.60;1.40;;;;;;;21.17;53.96;100988.31;4961764;28;107836;-45
2023/07/19 06:53:56;;;;;;;2.13;1.40;;;;;;;21.25;53.84;100993.94;4961975;28;97625;-45
2023/07/19 06:56:21;;;;;;;1.37;1.20;;;;;;;21.35;53.74;100992.81;4961260;28;97462;-44
2023/07/19 06:58:46;;;;;;;1.20;1.10;;;;;;;21.45;53.48;100996.53;4962345;28;97168;-44
2023/07/19 07:01:12;;;;;;;2.20;1.37;;;;;;;21.52;53.22;100981.78;4962494;28;97407;-44
2023/07/19 07:03:37;;;;;;;1.53;1.33;;;;;;;21.59;53.03;100981.06;4961369;28;97476;-44
2023/07/19 07:06:02;;;;;;;1.37;1.17;;;;;;;21.66;53.05;100987.94;4962237;28;96922;-44
2023/07/19 07:08:28;;;;;;;4.00;1.43;;;;;;;21.73;53.00;100987.19;4962134;28;97397;-43
2023/07/19 07:10:53;;;;;;;2.27;1.33;;;;;;;21.80;52.78;100983.63;4961217;28;97149;-44
2023/07/19 07:13:19;;;;;;;1.27;1.13;;;;;;;21.84;52.51;100984.00;4962519;28;97304;-44
2023/07/19 07:15:44;;;;;;;4.70;1.43;;;;;;;21.86;52.28;100992.63;4961220;28;96972;-45
2023/07/19 07:18:10;;;;;;;1.43;1.33;;;;;;;21.90;52.21;100992.22;4960732;28;96925;-43
2023/07/19 07:20:35;;;;;;;1.50;1.40;;;;;;;21.95;52.15;100994.81;4960884;28;97306;-44
2023/07/19 07:23:01;;;;;;;1.20;1.10;;;;;;;21.98;52.20;100999.31;4960626;28;96777;-44
2023/07/19 07:25:27;;;;;;;1.77;1.67;;;;;;;21.98;52.25;100999.31;4961767;28;96739;-45
2023/07/19 07:27:52;;;;;;;1.83;1.30;;;;;;;21.93;52.29;101003.03;4960987;28;97202;-44
2023/07/19 07:30:19;;;;;;;3.00;1.33;;;;;;;21.90;52.63;101003.44;4959527;28;97159;-44
2023/07/19 07:32:45;;;;;;;1.40;1.10;;;;;;;21.87;52.83;100996.16;4961559;28;96669;-44
2023/07/19 07:35:10;;;;;;;3.77;1.47;;;;;;;21.86;53.08;100992.63;4962348;28;97063;-44
2023/07/19 07:37:35;;;;;;;1.80;1.47;;;;;;;21.85;53.31;101007.94;4959542;28;97105;-44
2023/07/19 07:40:01;;;;;;;1.77;1.50;;;;;;;21.86;53.39;101009.44;4960071;28;97788;-44
2023/07/19 07:42:26;;;;;;;2.03;1.60;;;;;;;21.89;53.50;101004.72;4960768;28;97172;-44
2023/07/19 07:44:52;;;;;;;1.80;1.70;;;;;;;21.94;53.67;101009.41;4960989;28;97243;-45
2023/07/19 07:47:17;;;;;;;1.50;1.40;;;;;;;21.99;53.67;101005.66;4961093;28;96933;-44
2023/07/19 07:49:43;;;;;;;1.50;1.33;;;;;;;22.04;53.81;100997.03;4960833;28;97476;-44
2023/07/19 07:52:11;;;;;;;1.20;1.10;;;;;;;22.11;53.87;101001.88;4960626;28;97059;-44
2023/07/19 07:54:36;;;;;;;3.30;1.30;;;;;;;22.15;53.74;100996.63;4962811;28;97317;-45
2023/07/19 07:57:02;;;;;;;1.87;1.77;;;;;;;22.20;53.57;100994.94;4960241;28;97065;-44
2023/07/19 07:59:27;;;;;;;1.40;1.30;;;;;;;22.23;53.52;100988.97;4955923;28;97159;-44
2023/07/19 08:01:52;;;;;;;1.20;1.00;;;;;;;22.28;53.52;100988.00;4959577;28;97160;-44
2023/07/19 08:04:18;;;;;;;1.40;1.30;;;;;;;22.39;53.49;100981.22;4962873;28;97399;-44
2023/07/19 08:06:43;;;;;;;2.00;1.67;;;;;;;22.49;53.33;100981.38;4960833;28;97027;-44
2023/07/19 08:09:08;;;;;;;1.43;1.33;;;;;;;22.57;52.87;100998.91;4961916;28;97017;-44
2023/07/19 08:11:34;;;;;;;1.87;1.17;;;;;;;22.66;52.64;100987.88;4961064;28;97039;-43
2023/07/19 08:13:59;;;;;;;1.60;1.50;;;;;;;22.79;52.48;100981.25;4961056;28;97119;-44
2023/07/19 08:16:25;;;;;;;2.30;1.50;;;;;;;22.86;52.23;100983.25;4961215;28;97082;-44
2023/07/19 08:18:50;;;;;;;1.67;1.30;;;;;;;22.91;52.07;100983.03;4961859;28;97027;-45
2023/07/19 08:21:15;;;;;;;2.00;1.63;;;;;;;22.94;51.73;100986.75;4960713;28;106580;-44
2023/07/19 08:23:41;;;;;;;1.40;1.30;;;;;;;22.91;51.50;100980.22;4962172;28;97067;-44
2023/07/19 08:26:06;;;;;;;4.10;1.93;;;;;;;22.93;51.65;100974.78;4961581;28;96917;-43
2023/07/19 08:28:31;;;;;;;3.87;1.30;;;;;;;23.02;51.75;100974.16;4960643;28;96920;-44
2023/07/19 08:30:57;;;;;;;5.60;2.23;;;;;;;23.10;51.25;100983.28;4959543;28;109675;-44
2023/07/19 08:33:23;;;;;;;1.30;1.17;;;;;;;23.22;51.36;100983.56;4961042;28;97221;-43
2023/07/19 08:35:49;;;;;;;1.47;1.30;;;;;;;23.37;51.16;100975.03;4959631;28;97303;-44
2023/07/19 08:38:15;;;;;;;2.07;1.40;;;;;;;23.43;50.87;100974.81;4960621;28;96905;-44
2023/07/19 08:41:06;;;;;;;3.97;1.30;;;;;;;23.40;50.58;100976.72;4959858;28;96971;-44
2023/07/19 08:43:34;;;;;;;2.40;1.67;;;;;;;23.36;50.75;100972.81;4961932;28;97221;-44
2023/07/19 08:45:59;;;;;;;3.00;1.83;;;;;;;23.36;50.46;100979.19;4965158;28;96785;-44
2023/07/19 08:48:25;;;;;;;2.47;1.30;;;;;;;23.42;50.62;100984.56;4964579;28;97374;-45
2023/07/19 08:50:55;;;;;;;1.60;1.50;;;;;;;23.50;50.17;100985.25;4963381;28;96839;-44
2023/07/19 08:53:21;;;;;;;1.60;1.37;;;;;;;23.58;50.49;100983.13;4963960;28;97408;-44
2023/07/19 08:55:47;;;;;;;1.50;0.97;;;;;;;23.66;49.78;100976.09;4963642;28;96914;-44
2023/07/19 08:58:13;;;;;;;1.40;1.20;;;;;;;23.73;49.82;100978.09;4963988;28;97282;-45
2023/07/19 09:00:38;;;;;;;1.87;1.40;;;;;;;23.77;49.51;100984.06;4963404;28;97319;-44
2023/07/19 09:03:04;;;;;;;1.10;1.00;;;;;;;23.85;49.22;100978.38;4963466;28;96857;-44
2023/07/19 09:05:30;;;;;;;1.63;1.20;;;;;;;23.92;48.87;100974.72;4964569;28;98042;-44
2023/07/19 09:08:00;;;;;;;1.50;1.00;;;;;;;23.94;48.54;100976.97;4964083;28;97082;-44
2023/07/19 09:10:26;;;;;;;1.30;0.90;;;;;;;23.99;48.88;100982.31;4961596;28;97297;-44
2023/07/19 09:12:51;;;;;;;1.27;1.17;;;;;;;24.07;48.68;100979.47;4963150;28;96718;-44
2023/07/19 09:15:16;;;;;;;1.80;1.20;;;;;;;24.19;48.55;100975.56;4964113;28;97363;-44
2023/07/19 09:17:48;;;;;;;1.77;1.10;;;;;;;24.34;48.75;100978.19;4960126;28;99728;-44
2023/07/19 09:20:15;;;;;;;2.43;1.40;;;;;;;24.58;48.21;100982.94;4960583;28;97182;-44
2023/07/19 09:22:41;;;;;;;1.07;0.97;;;;;;;24.82;48.08;100972.88;4960730;28;97397;-44
2023/07/19 09:25:09;;;;;;;1.37;1.10;;;;;;;24.94;47.66;100964.66;4961020;28;96992;-45
2023/07/19 09:27:35;;;;;;;2.30;1.10;;;;;;;25.09;47.19;100959.53;4963255;28;97504;-44
2023/07/19 09:30:02;;;;;;;2.80;1.20;;;;;;;25.25;46.95;100960.75;4963266;28;98390;-45
2023/07/19 09:32:28;;;;;;;1.33;1.20;;;;;;;25.36;46.25;100961.53;4962358;28;97359;-45
2023/07/19 09:34:54;;;;;;;1.40;1.07;;;;;;;25.40;46.53;100968.22;4960379;28;97348;-45
2023/07/19 09:37:21;;;;;;;2.50;1.20;;;;;;;25.53;46.18;100955.81;4964068;28;97219;-45
2023/07/19 09:39:47;;;;;;;1.20;1.10;;;;;;;25.72;45.74;100956.59;4961799;28;97279;-45
2023/07/19 09:42:13;;;;;;;3.90;1.00;;;;;;;25.96;45.90;100957.63;4964659;28;96909;-45
2023/07/19 09:44:39;;;;;;;2.40;1.10;;;;;;;26.15;45.53;100960.47;4964072;28;97336;-45
2023/07/19 09:47:08;;;;;;;1.30;1.20;;;;;;;26.15;45.23;100952.00;4962309;28;96896;-44
2023/07/19 09:49:34;;;;;;;1.40;1.30;;;;;;;26.10;45.24;100952.31;4962312;28;97371;-45
2023/07/19 09:52:01;;;;;;;5.60;1.23;;;;;;;26.11;45.14;100959.44;4962054;28;97304;-45
2023/07/19 09:54:30;;;;;;;2.70;1.30;;;;;;;26.11;45.19;100950.97;4962807;28;96966;-45
2023/07/19 09:56:55;;;;;;;2.80;1.20;;;;;;;26.03;45.49;100957.50;4962710;28;97536;-45
2023/07/19 09:59:26;;;;;;;1.27;1.00;;;;;;;26.13;45.34;100943.41;4962289;28;97204;-45
2023/07/19 10:01:52;;;;;;;2.30;1.00;;;;;;;26.37;45.27;100938.75;4962096;28;97264;-45
2023/07/19 10:04:29;;;;;;;3.17;1.03;;;;;;;26.51;44.61;100942.59;4963715;28;97479;-44
2023/07/19 10:07:09;;;;;;;1.73;1.10;;;;;;;26.73;44.27;100938.56;4962526;28;97514;-44
2023/07/19 10:09:39;;;;;;;1.47;1.10;;;;;;;26.94;44.19;100943.50;4962997;28;97171;-44
2023/07/19 10:12:22;;;;;;;1.20;1.00;;;;;;;26.95;43.62;100954.22;4961352;28;96722;-45
2023/07/19 10:15:04;;;;;;;2.93;1.20;;;;;;;26.84;43.79;100940.75;4961967;28;96897;-45
2023/07/19 10:17:40;;;;;;;4.00;1.10;;;;;;;26.80;42.72;100940.44;4961017;28;99164;-44
2023/07/19 10:20:08;;;;;;;1.30;0.83;;;;;;;26.76;43.63;100939.44;4961862;28;96782;-45
2023/07/19 10:22:52;;;;;;;1.80;1.17;;;;;;;26.68;42.92;100940.31;4963711;28;97538;-44
2023/07/19 10:25:38;;;;;;;1.73;0.83;;;;;;;26.74;43.13;100943.59;4962764;28;96771;-44
2023/07/19 10:28:11;;;;;;;1.10;1.00;;;;;;;26.72;42.92;100948.31;4962092;28;97401;-45
2023/07/19 10:30:48;;;;;;;1.77;0.80;;;;;;;26.78;43.24;100939.59;4962039;28;97947;-45
2023/07/19 10:33:27;;;;;;;1.23;1.03;;;;;;;26.88;42.92;100943.09;4961782;28;97303;-44
2023/07/19 10:35:58;;;;;;;2.70;1.10;;;;;;;26.98;43.34;100926.84;4961291;28;97253;-44
2023/07/19 10:38:30;;;;;;;1.20;0.83;;;;;;;27.05;42.87;100929.50;4961472;28;97354;-45
2023/07/19 10:41:03;;;;;;;1.00;0.87;;;;;;;27.05;42.24;100926.69;4961291;28;97766;-45
2023/07/19 10:43:31;;;;;;;1.63;0.90;;;;;;;26.91;43.04;100934.16;4962272;28;97020;-44
2023/07/19 10:46:00;;;;;;;1.23;1.00;;;;;;;26.86;43.15;100931.66;4961681;28;97178;-44
2023/07/19 10:48:29;;;;;;;3.43;1.10;;;;;;;26.87;42.89;100933.13;4961656;28;97167;-45
2023/07/19 10:50:57;;;;;;;1.60;0.97;;;;;;;26.87;43.00;100933.13;4959681;28;96976;-45
2023/07/19 10:53:22;;;;;;;1.67;1.00;;;;;;;26.87;43.01;100933.13;4961475;28;97308;-45
2023/07/19 10:55:52;;;;;;;1.07;0.80;;;;;;;26.81;42.81;100930.66;4961960;28;96950;-45
2023/07/19 10:58:18;;;;;;;3.23;0.70;;;;;;;26.79;43.02;100927.69;4961994;28;97617;-45
2023/07/19 11:00:43;;;;;;;1.03;0.87;;;;;;;26.74;43.10;100926.66;4960832;28;96994;-45
2023/07/19 11:03:14;;;;;;;1.10;1.00;;;;;;;26.70;42.93;100929.19;4960801;28;96798;-44
2023/07/19 11:05:41;;;;;;;2.17;0.93;;;;;;;26.64;43.17;100933.66;4960621;28;97149;-45
2023/07/19 11:08:07;;;;;;;3.80;0.90;;;;;;;26.66;42.99;100928.91;4960987;28;96925;-45
2023/07/19 11:10:32;;;;;;;1.77;0.90;;;;;;;26.74;42.98;100932.31;4960716;28;98502;-45
2023/07/19 11:12:58;;;;;;;1.10;0.80;;;;;;;26.86;42.71;100940.88;4961441;28;97414;-45
2023/07/19 11:15:26;;;;;;;0.80;0.80;;;;;;;26.92;42.44;100929.25;4962474;28;97282;-44
2023/07/19 11:17:55;;;;;;;0.90;0.80;;;;;;;27.02;41.64;100922.22;4959321;28;96783;-45
2023/07/19 11:20:27;;;;;;;1.20;0.70;;;;;;;27.19;41.46;100924.81;4960116;28;97396;-45